sensor_id;sensor_type;location;lat;lon;timestamp;temperature;humidity
5901;DHT22;2976;49.764;9.796;2023-05-16T00:01:47;11.30;99.90
5901;DHT22;2976;49.764;9.796;2023-05-16T00:04:12;11.30;99.90
5901;DHT22;2976;49.764;9.796;2023-05-16T00:06:38;11.30;99.90
5901;DHT22;2976;49.764;9.796;2023-05-16T00:09:03;11.30;99.90
5901;DHT22;2976;49.764;9.796;2023-05-16T00:11:29;11.20;99.90
5901;DHT22;2976;49.764;9.796;2023-05-16T00:13:55;11.10;99.90
5901;DHT22;2976;49.764;9.796;2023-05-16T00:16:20;11.00;99.90
5901;DHT22;2976;49.764;9.796;2023-05-16T00:18:46;10.90;99.90
5901;DHT22;2976;49.764;9.796;2023-05-16T00:21:12;10.80;99.90
5901;DHT22;2976;49.764;9.796;2023-05-16T00:23:38;10.80;99.90
5901;DHT22;2976;49.764;9.796;2023-05-16T00:26:04;10.70;99.90
5901;DHT22;2976;49.764;9.796;2023-05-16T00:28:29;10.70;99.90
5901;DHT22;2976;49.764;9.796;2023-05-16T00:30:55;10.70;99.90
5901;DHT22;2976;49.764;9.796;2023-05-16T00:33:20;10.70;99.90
5901;DHT22;2976;49.764;9.796;2023-05-16T00:35:46;10.70;99.90
5901;DHT22;2976;49.764;9.796;2023-05-16T00:38:12;10.70;99.90
5901;DHT22;2976;49.764;9.796;2023-05-16T00:40:37;10.80;99.90
5901;DHT22;2976;49.764;9.796;2023-05-16T00:43:03;10.80;99.90
5901;DHT22;2976;49.764;9.796;2023-05-16T00:45:28;10.90;99.90
5901;DHT22;2976;49.764;9.796;2023-05-16T00:47:54;10.90;99.90
5901;DHT22;2976;49.764;9.796;2023-05-16T00:50:20;10.80;99.90
5901;DHT22;2976;49.764;9.796;2023-05-16T00:52:46;10.80;99.90
5901;DHT22;2976;49.764;9.796;2023-05-16T00:55:12;10.80;99.90
5901;DHT22;2976;49.764;9.796;2023-05-16T00:57:38;10.70;99.90
5901;DHT22;2976;49.764;9.796;2023-05-16T01:00:07;10.60;99.90
5901;DHT22;2976;49.764;9.796;2023-05-16T01:02:36;10.60;99.90
5901;DHT22;2976;49.764;9.796;2023-05-16T01:05:02;10.60;99.90
5901;DHT22;2976;49.764;9.796;2023-05-16T01:07:34;10.50;99.90
5901;DHT22;2976;49.764;9.796;2023-05-16T01:10:02;10.50;99.90
5901;DHT22;2976;49.764;9.796;2023-05-16T01:15:25;10.50;99.90
5901;DHT22;2976;49.764;9.796;2023-05-16T01:18:05;10.40;99.90
5901;DHT22;2976;49.764;9.796;2023-05-16T01:20:42;10.40;99.90
5901;DHT22;2976;49.764;9.796;2023-05-16T01:23:51;10.50;99.90
5901;DHT22;2976;49.764;9.796;2023-05-16T01:26:27;10.50;99.90
5901;DHT22;2976;49.764;9.796;2023-05-16T01:28:55;10.60;99.90
5901;DHT22;2976;49.764;9.796;2023-05-16T01:31:22;10.60;99.90
5901;DHT22;2976;49.764;9.796;2023-05-16T01:33:48;10.60;99.90
5901;DHT22;2976;49.764;9.796;2023-05-16T01:39:32;10.70;99.90
5901;DHT22;2976;49.764;9.796;2023-05-16T01:42:04;10.60;99.90
5901;DHT22;2976;49.764;9.796;2023-05-16T01:44:36;10.60;99.90
5901;DHT22;2976;49.764;9.796;2023-05-16T01:47:10;10.60;99.90
5901;DHT22;2976;49.764;9.796;2023-05-16T01:52:07;10.50;99.90
5901;DHT22;2976;49.764;9.796;2023-05-16T01:54:37;10.50;99.90
5901;DHT22;2976;49.764;9.796;2023-05-16T01:57:05;10.50;99.90
5901;DHT22;2976;49.764;9.796;2023-05-16T01:59:33;10.50;99.90
5901;DHT22;2976;49.764;9.796;2023-05-16T02:01:58;10.50;99.90
5901;DHT22;2976;49.764;9.796;2023-05-16T02:04:25;10.50;99.90
5901;DHT22;2976;49.764;9.796;2023-05-16T02:06:51;10.50;99.90
5901;DHT22;2976;49.764;9.796;2023-05-16T02:09:16;10.60;99.90
5901;DHT22;2976;49.764;9.796;2023-05-16T02:11:42;10.60;99.90
5901;DHT22;2976;49.764;9.796;2023-05-16T02:14:08;10.60;99.90
5901;DHT22;2976;49.764;9.796;2023-05-16T02:16:35;10.60;99.90
5901;DHT22;2976;49.764;9.796;2023-05-16T02:19:01;10.50;99.90
5901;DHT22;2976;49.764;9.796;2023-05-16T02:21:26;10.50;99.90
5901;DHT22;2976;49.764;9.796;2023-05-16T02:23:52;10.50;99.90
5901;DHT22;2976;49.764;9.796;2023-05-16T02:26:18;10.50;99.90
5901;DHT22;2976;49.764;9.796;2023-05-16T02:28:43;10.50;99.90
5901;DHT22;2976;49.764;9.796;2023-05-16T02:31:09;10.50;99.90
5901;DHT22;2976;49.764;9.796;2023-05-16T02:33:35;10.60;99.90
5901;DHT22;2976;49.764;9.796;2023-05-16T02:36:00;10.60;99.90
5901;DHT22;2976;49.764;9.796;2023-05-16T02:38:26;10.60;99.90
5901;DHT22;2976;49.764;9.796;2023-05-16T02:40:51;10.60;99.90
5901;DHT22;2976;49.764;9.796;2023-05-16T02:43:17;10.60;99.90
5901;DHT22;2976;49.764;9.796;2023-05-16T02:45:43;10.60;99.90
5901;DHT22;2976;49.764;9.796;2023-05-16T02:48:08;10.60;99.90
5901;DHT22;2976;49.764;9.796;2023-05-16T02:50:34;10.50;99.90
5901;DHT22;2976;49.764;9.796;2023-05-16T02:53:00;10.50;99.90
5901;DHT22;2976;49.764;9.796;2023-05-16T02:55:30;10.50;99.90
5901;DHT22;2976;49.764;9.796;2023-05-16T02:57:55;10.50;99.90
5901;DHT22;2976;49.764;9.796;2023-05-16T03:00:21;10.40;99.90
5901;DHT22;2976;49.764;9.796;2023-05-16T03:02:46;10.40;99.90
5901;DHT22;2976;49.764;9.796;2023-05-16T03:05:12;10.40;99.90
5901;DHT22;2976;49.764;9.796;2023-05-16T03:07:38;10.40;99.90
5901;DHT22;2976;49.764;9.796;2023-05-16T03:10:04;10.30;99.90
5901;DHT22;2976;49.764;9.796;2023-05-16T03:12:30;10.30;99.90
5901;DHT22;2976;49.764;9.796;2023-05-16T03:14:55;10.30;99.90
5901;DHT22;2976;49.764;9.796;2023-05-16T03:17:21;10.30;99.90
5901;DHT22;2976;49.764;9.796;2023-05-16T03:19:46;10.30;99.90
5901;DHT22;2976;49.764;9.796;2023-05-16T03:22:12;10.30;99.90
5901;DHT22;2976;49.764;9.796;2023-05-16T03:24:37;10.30;99.90
5901;DHT22;2976;49.764;9.796;2023-05-16T03:27:03;10.30;99.90
5901;DHT22;2976;49.764;9.796;2023-05-16T03:29:30;10.30;99.90
5901;DHT22;2976;49.764;9.796;2023-05-16T03:31:56;10.30;99.90
5901;DHT22;2976;49.764;9.796;2023-05-16T03:34:21;10.30;99.90
5901;DHT22;2976;49.764;9.796;2023-05-16T03:36:48;10.40;99.90
5901;DHT22;2976;49.764;9.796;2023-05-16T03:39:14;10.40;99.90
5901;DHT22;2976;49.764;9.796;2023-05-16T03:41:40;10.40;99.90
5901;DHT22;2976;49.764;9.796;2023-05-16T03:44:05;10.40;99.90
5901;DHT22;2976;49.764;9.796;2023-05-16T03:46:31;10.40;99.90
5901;DHT22;2976;49.764;9.796;2023-05-16T03:48:56;10.40;99.90
5901;DHT22;2976;49.764;9.796;2023-05-16T03:51:22;10.40;99.90
5901;DHT22;2976;49.764;9.796;2023-05-16T03:53:47;10.50;99.90
5901;DHT22;2976;49.764;9.796;2023-05-16T03:56:13;10.50;99.90
5901;DHT22;2976;49.764;9.796;2023-05-16T03:58:38;10.50;99.90
5901;DHT22;2976;49.764;9.796;2023-05-16T04:01:04;10.50;99.90
5901;DHT22;2976;49.764;9.796;2023-05-16T04:03:29;10.50;99.90
5901;DHT22;2976;49.764;9.796;2023-05-16T04:05:56;10.60;99.90
5901;DHT22;2976;49.764;9.796;2023-05-16T04:08:21;10.60;99.90
5901;DHT22;2976;49.764;9.796;2023-05-16T04:10:47;10.60;99.90
5901;DHT22;2976;49.764;9.796;2023-05-16T04:13:13;10.60;99.90
5901;DHT22;2976;49.764;9.796;2023-05-16T04:15:39;10.70;99.90
5901;DHT22;2976;49.764;9.796;2023-05-16T04:18:04;10.70;99.90
5901;DHT22;2976;49.764;9.796;2023-05-16T04:20:30;10.70;99.90
5901;DHT22;2976;49.764;9.796;2023-05-16T04:22:56;10.70;99.90
5901;DHT22;2976;49.764;9.796;2023-05-16T04:25:21;10.70;99.90
5901;DHT22;2976;49.764;9.796;2023-05-16T04:27:47;10.70;99.90
5901;DHT22;2976;49.764;9.796;2023-05-16T04:30:12;10.70;99.90
5901;DHT22;2976;49.764;9.796;2023-05-16T04:32:39;10.60;99.90
5901;DHT22;2976;49.764;9.796;2023-05-16T04:35:05;10.60;99.90
5901;DHT22;2976;49.764;9.796;2023-05-16T04:37:33;10.60;99.90
5901;DHT22;2976;49.764;9.796;2023-05-16T04:40:00;10.50;99.90
5901;DHT22;2976;49.764;9.796;2023-05-16T04:42:26;10.60;99.90
5901;DHT22;2976;49.764;9.796;2023-05-16T04:44:52;10.60;99.90
5901;DHT22;2976;49.764;9.796;2023-05-16T04:47:17;10.60;99.90
5901;DHT22;2976;49.764;9.796;2023-05-16T04:49:43;10.50;99.90
5901;DHT22;2976;49.764;9.796;2023-05-16T04:52:09;10.50;99.90
5901;DHT22;2976;49.764;9.796;2023-05-16T04:54:36;10.50;99.90
5901;DHT22;2976;49.764;9.796;2023-05-16T04:57:02;10.50;99.90
5901;DHT22;2976;49.764;9.796;2023-05-16T04:59:28;10.60;99.90
5901;DHT22;2976;49.764;9.796;2023-05-16T05:01:53;10.60;99.90
5901;DHT22;2976;49.764;9.796;2023-05-16T05:04:19;10.60;99.90
5901;DHT22;2976;49.764;9.796;2023-05-16T05:06:44;10.50;99.90
5901;DHT22;2976;49.764;9.796;2023-05-16T05:09:10;10.50;99.90
5901;DHT22;2976;49.764;9.796;2023-05-16T05:11:35;10.50;99.90
5901;DHT22;2976;49.764;9.796;2023-05-16T05:14:01;10.60;99.90
5901;DHT22;2976;49.764;9.796;2023-05-16T05:16:27;10.60;99.90
5901;DHT22;2976;49.764;9.796;2023-05-16T05:18:52;10.50;99.90
5901;DHT22;2976;49.764;9.796;2023-05-16T05:21:18;10.50;99.90
5901;DHT22;2976;49.764;9.796;2023-05-16T05:23:44;10.50;99.90
5901;DHT22;2976;49.764;9.796;2023-05-16T05:26:10;10.50;99.90
5901;DHT22;2976;49.764;9.796;2023-05-16T05:28:36;10.40;99.90
5901;DHT22;2976;49.764;9.796;2023-05-16T05:31:03;10.40;99.90
5901;DHT22;2976;49.764;9.796;2023-05-16T05:33:29;10.40;99.90
5901;DHT22;2976;49.764;9.796;2023-05-16T05:35:55;10.40;99.90
5901;DHT22;2976;49.764;9.796;2023-05-16T05:38:21;10.40;99.90
5901;DHT22;2976;49.764;9.796;2023-05-16T05:40:47;10.40;99.90
5901;DHT22;2976;49.764;9.796;2023-05-16T05:43:14;10.40;99.90
5901;DHT22;2976;49.764;9.796;2023-05-16T05:45:40;10.30;99.90
5901;DHT22;2976;49.764;9.796;2023-05-16T05:48:05;10.30;99.90
5901;DHT22;2976;49.764;9.796;2023-05-16T05:50:31;10.30;99.90
5901;DHT22;2976;49.764;9.796;2023-05-16T05:52:57;10.30;99.90
5901;DHT22;2976;49.764;9.796;2023-05-16T05:55:22;10.30;99.90
5901;DHT22;2976;49.764;9.796;2023-05-16T05:57:48;10.20;99.90
5901;DHT22;2976;49.764;9.796;2023-05-16T06:00:13;10.20;99.90
5901;DHT22;2976;49.764;9.796;2023-05-16T06:02:39;10.20;99.90
5901;DHT22;2976;49.764;9.796;2023-05-16T06:05:05;10.20;99.90
5901;DHT22;2976;49.764;9.796;2023-05-16T06:07:31;10.20;99.90
5901;DHT22;2976;49.764;9.796;2023-05-16T06:09:56;10.20;99.90
5901;DHT22;2976;49.764;9.796;2023-05-16T06:12:22;10.20;99.90
5901;DHT22;2976;49.764;9.796;2023-05-16T06:14:47;10.10;99.90
5901;DHT22;2976;49.764;9.796;2023-05-16T06:17:13;10.20;99.90
5901;DHT22;2976;49.764;9.796;2023-05-16T06:19:39;10.10;99.90
5901;DHT22;2976;49.764;9.796;2023-05-16T06:22:04;10.10;99.90
5901;DHT22;2976;49.764;9.796;2023-05-16T06:24:30;10.10;99.90
5901;DHT22;2976;49.764;9.796;2023-05-16T06:26:55;10.20;99.90
5901;DHT22;2976;49.764;9.796;2023-05-16T06:29:21;10.20;99.90
5901;DHT22;2976;49.764;9.796;2023-05-16T06:31:48;10.20;99.90
5901;DHT22;2976;49.764;9.796;2023-05-16T06:34:13;10.20;99.90
5901;DHT22;2976;49.764;9.796;2023-05-16T06:36:39;10.20;99.90
5901;DHT22;2976;49.764;9.796;2023-05-16T06:39:04;10.20;99.90
5901;DHT22;2976;49.764;9.796;2023-05-16T06:41:30;10.10;99.90
5901;DHT22;2976;49.764;9.796;2023-05-16T06:43:56;10.10;99.90
5901;DHT22;2976;49.764;9.796;2023-05-16T06:46:21;10.10;99.90
5901;DHT22;2976;49.764;9.796;2023-05-16T06:48:47;10.10;99.90
5901;DHT22;2976;49.764;9.796;2023-05-16T06:51:13;10.10;99.90
5901;DHT22;2976;49.764;9.796;2023-05-16T06:53:38;10.20;99.90
5901;DHT22;2976;49.764;9.796;2023-05-16T06:56:04;10.20;99.90
5901;DHT22;2976;49.764;9.796;2023-05-16T06:58:29;10.20;99.90
5901;DHT22;2976;49.764;9.796;2023-05-16T07:00:55;10.20;99.90
5901;DHT22;2976;49.764;9.796;2023-05-16T07:03:20;10.30;99.90
5901;DHT22;2976;49.764;9.796;2023-05-16T07:05:46;10.30;99.90
5901;DHT22;2976;49.764;9.796;2023-05-16T07:08:11;10.30;99.90
5901;DHT22;2976;49.764;9.796;2023-05-16T07:10:38;10.30;99.90
5901;DHT22;2976;49.764;9.796;2023-05-16T07:13:03;10.40;99.90
5901;DHT22;2976;49.764;9.796;2023-05-16T07:15:29;10.50;99.90
5901;DHT22;2976;49.764;9.796;2023-05-16T07:17:55;10.50;99.90
5901;DHT22;2976;49.764;9.796;2023-05-16T07:20:21;10.50;99.90
5901;DHT22;2976;49.764;9.796;2023-05-16T07:22:47;10.60;99.90
5901;DHT22;2976;49.764;9.796;2023-05-16T07:25:12;10.60;99.90
5901;DHT22;2976;49.764;9.796;2023-05-16T07:27:40;10.70;99.90
5901;DHT22;2976;49.764;9.796;2023-05-16T07:30:08;10.90;99.90
5901;DHT22;2976;49.764;9.796;2023-05-16T07:32:34;11.00;99.90
5901;DHT22;2976;49.764;9.796;2023-05-16T07:35:00;11.00;99.90
5901;DHT22;2976;49.764;9.796;2023-05-16T07:37:25;11.10;99.90
5901;DHT22;2976;49.764;9.796;2023-05-16T07:39:51;11.20;99.90
5901;DHT22;2976;49.764;9.796;2023-05-16T07:42:16;11.20;99.90
5901;DHT22;2976;49.764;9.796;2023-05-16T07:44:42;11.10;99.90
5901;DHT22;2976;49.764;9.796;2023-05-16T07:47:07;11.10;99.90
5901;DHT22;2976;49.764;9.796;2023-05-16T07:49:33;11.20;99.90
5901;DHT22;2976;49.764;9.796;2023-05-16T07:51:58;11.40;99.90
5901;DHT22;2976;49.764;9.796;2023-05-16T07:54:24;11.70;99.90
5901;DHT22;2976;49.764;9.796;2023-05-16T07:56:50;12.00;99.90
5901;DHT22;2976;49.764;9.796;2023-05-16T07:59:15;12.10;99.90
5901;DHT22;2976;49.764;9.796;2023-05-16T08:01:41;12.20;99.90
5901;DHT22;2976;49.764;9.796;2023-05-16T08:04:06;12.20;99.90
5901;DHT22;2976;49.764;9.796;2023-05-16T08:06:32;12.20;99.90
5901;DHT22;2976;49.764;9.796;2023-05-16T08:08:58;12.30;99.90
5901;DHT22;2976;49.764;9.796;2023-05-16T08:11:24;12.40;99.90
5901;DHT22;2976;49.764;9.796;2023-05-16T08:13:50;12.70;99.90
5901;DHT22;2976;49.764;9.796;2023-05-16T08:16:15;12.80;99.90
5901;DHT22;2976;49.764;9.796;2023-05-16T08:18:41;13.30;99.90
5901;DHT22;2976;49.764;9.796;2023-05-16T08:21:07;13.80;99.90
5901;DHT22;2976;49.764;9.796;2023-05-16T08:23:33;14.00;99.90
5901;DHT22;2976;49.764;9.796;2023-05-16T08:25:59;14.30;99.90
5901;DHT22;2976;49.764;9.796;2023-05-16T08:28:24;14.40;99.90
5901;DHT22;2976;49.764;9.796;2023-05-16T08:30:50;14.10;99.90
5901;DHT22;2976;49.764;9.796;2023-05-16T08:33:15;14.00;99.90
5901;DHT22;2976;49.764;9.796;2023-05-16T08:35:42;13.70;99.90
5901;DHT22;2976;49.764;9.796;2023-05-16T08:38:08;13.60;99.90
5901;DHT22;2976;49.764;9.796;2023-05-16T08:40:34;13.60;99.90
5901;DHT22;2976;49.764;9.796;2023-05-16T08:42:59;13.40;99.90
5901;DHT22;2976;49.764;9.796;2023-05-16T08:45:25;13.40;99.90
5901;DHT22;2976;49.764;9.796;2023-05-16T08:47:54;13.60;99.90
5901;DHT22;2976;49.764;9.796;2023-05-16T08:50:20;13.90;99.90
5901;DHT22;2976;49.764;9.796;2023-05-16T08:52:46;13.90;99.90
5901;DHT22;2976;49.764;9.796;2023-05-16T08:55:16;13.80;99.90
5901;DHT22;2976;49.764;9.796;2023-05-16T08:57:44;13.90;99.90
5901;DHT22;2976;49.764;9.796;2023-05-16T09:00:10;13.60;99.90
5901;DHT22;2976;49.764;9.796;2023-05-16T09:02:40;13.40;99.90
5901;DHT22;2976;49.764;9.796;2023-05-16T09:05:08;13.20;99.90
5901;DHT22;2976;49.764;9.796;2023-05-16T09:07:35;13.40;99.90
5901;DHT22;2976;49.764;9.796;2023-05-16T09:10:01;13.40;99.90
5901;DHT22;2976;49.764;9.796;2023-05-16T09:12:27;13.40;99.90
5901;DHT22;2976;49.764;9.796;2023-05-16T09:14:52;13.20;99.90
5901;DHT22;2976;49.764;9.796;2023-05-16T09:17:18;13.00;99.90
5901;DHT22;2976;49.764;9.796;2023-05-16T09:19:44;12.70;99.90
5901;DHT22;2976;49.764;9.796;2023-05-16T09:22:12;12.60;99.90
5901;DHT22;2976;49.764;9.796;2023-05-16T09:24:42;12.50;99.90
5901;DHT22;2976;49.764;9.796;2023-05-16T09:27:13;12.40;99.90
5901;DHT22;2976;49.764;9.796;2023-05-16T09:29:43;12.40;99.90
5901;DHT22;2976;49.764;9.796;2023-05-16T09:32:12;12.50;99.90
5901;DHT22;2976;49.764;9.796;2023-05-16T09:34:46;12.40;99.90
5901;DHT22;2976;49.764;9.796;2023-05-16T09:37:13;12.50;99.90
5901;DHT22;2976;49.764;9.796;2023-05-16T09:39:48;12.30;99.90
5901;DHT22;2976;49.764;9.796;2023-05-16T09:42:14;12.40;99.90
5901;DHT22;2976;49.764;9.796;2023-05-16T09:44:44;12.40;99.90
5901;DHT22;2976;49.764;9.796;2023-05-16T09:47:13;12.40;99.90
5901;DHT22;2976;49.764;9.796;2023-05-16T09:49:39;12.50;99.90
5901;DHT22;2976;49.764;9.796;2023-05-16T09:52:05;12.50;99.90
5901;DHT22;2976;49.764;9.796;2023-05-16T09:54:32;12.60;99.90
5901;DHT22;2976;49.764;9.796;2023-05-16T09:56:58;12.70;99.90
5901;DHT22;2976;49.764;9.796;2023-05-16T09:59:25;12.70;99.90
5901;DHT22;2976;49.764;9.796;2023-05-16T10:01:52;12.80;99.90
5901;DHT22;2976;49.764;9.796;2023-05-16T10:04:19;12.90;99.90
5901;DHT22;2976;49.764;9.796;2023-05-16T10:06:44;13.00;99.90
5901;DHT22;2976;49.764;9.796;2023-05-16T10:09:11;12.90;99.90
5901;DHT22;2976;49.764;9.796;2023-05-16T10:11:41;12.80;99.90
5901;DHT22;2976;49.764;9.796;2023-05-16T10:14:08;12.80;99.90
5901;DHT22;2976;49.764;9.796;2023-05-16T10:16:35;12.90;99.90
5901;DHT22;2976;49.764;9.796;2023-05-16T10:19:02;12.90;99.90
5901;DHT22;2976;49.764;9.796;2023-05-16T10:21:28;12.80;99.90
5901;DHT22;2976;49.764;9.796;2023-05-16T10:23:56;12.60;99.90
5901;DHT22;2976;49.764;9.796;2023-05-16T10:26:23;12.50;99.90
5901;DHT22;2976;49.764;9.796;2023-05-16T10:28:49;12.30;99.90
5901;DHT22;2976;49.764;9.796;2023-05-16T10:31:15;12.30;99.90
5901;DHT22;2976;49.764;9.796;2023-05-16T10:33:41;12.30;99.90
5901;DHT22;2976;49.764;9.796;2023-05-16T10:36:09;12.30;99.90
5901;DHT22;2976;49.764;9.796;2023-05-16T10:38:35;12.10;99.90
5901;DHT22;2976;49.764;9.796;2023-05-16T10:41:02;12.20;99.90
5901;DHT22;2976;49.764;9.796;2023-05-16T10:43:30;12.50;99.90
5901;DHT22;2976;49.764;9.796;2023-05-16T10:46:02;12.70;99.90
5901;DHT22;2976;49.764;9.796;2023-05-16T10:48:33;12.60;99.90
5901;DHT22;2976;49.764;9.796;2023-05-16T10:50:59;12.80;99.90
5901;DHT22;2976;49.764;9.796;2023-05-16T11:11:52;12.10;99.90
5901;DHT22;2976;49.764;9.796;2023-05-16T11:17:19;11.80;99.90
5901;DHT22;2976;49.764;9.796;2023-05-16T11:19:49;11.60;99.90
5901;DHT22;2976;49.764;9.796;2023-05-16T11:22:35;11.50;99.90
5901;DHT22;2976;49.764;9.796;2023-05-16T11:25:06;11.50;99.90
5901;DHT22;2976;49.764;9.796;2023-05-16T11:27:44;11.50;99.90
5901;DHT22;2976;49.764;9.796;2023-05-16T11:30:12;11.80;99.90
5901;DHT22;2976;49.764;9.796;2023-05-16T11:32:40;12.10;99.90
5901;DHT22;2976;49.764;9.796;2023-05-16T11:35:08;12.30;99.90
5901;DHT22;2976;49.764;9.796;2023-05-16T11:37:34;12.50;99.90
5901;DHT22;2976;49.764;9.796;2023-05-16T11:40:05;12.50;99.90
5901;DHT22;2976;49.764;9.796;2023-05-16T11:42:41;12.50;99.90
5901;DHT22;2976;49.764;9.796;2023-05-16T11:45:16;12.50;99.90
5901;DHT22;2976;49.764;9.796;2023-05-16T11:47:44;12.40;99.90
5901;DHT22;2976;49.764;9.796;2023-05-16T11:50:14;12.30;99.90
5901;DHT22;2976;49.764;9.796;2023-05-16T11:52:46;12.40;99.90
5901;DHT22;2976;49.764;9.796;2023-05-16T11:55:13;12.20;99.90
5901;DHT22;2976;49.764;9.796;2023-05-16T11:57:40;12.30;99.90
5901;DHT22;2976;49.764;9.796;2023-05-16T12:00:20;12.50;99.90
5901;DHT22;2976;49.764;9.796;2023-05-16T12:02:47;12.40;99.90
5901;DHT22;2976;49.764;9.796;2023-05-16T12:05:14;12.30;99.90
5901;DHT22;2976;49.764;9.796;2023-05-16T12:07:42;12.40;99.90
5901;DHT22;2976;49.764;9.796;2023-05-16T12:10:10;12.30;99.90
5901;DHT22;2976;49.764;9.796;2023-05-16T12:12:37;12.30;99.90
5901;DHT22;2976;49.764;9.796;2023-05-16T12:15:04;12.20;99.90
5901;DHT22;2976;49.764;9.796;2023-05-16T12:17:32;12.20;99.90
5901;DHT22;2976;49.764;9.796;2023-05-16T12:19:57;12.10;99.90
5901;DHT22;2976;49.764;9.796;2023-05-16T12:22:24;12.20;99.90
5901;DHT22;2976;49.764;9.796;2023-05-16T12:24:50;12.30;99.90
5901;DHT22;2976;49.764;9.796;2023-05-16T12:27:23;12.10;99.90
5901;DHT22;2976;49.764;9.796;2023-05-16T12:29:49;12.30;99.90
5901;DHT22;2976;49.764;9.796;2023-05-16T12:32:18;12.40;99.90
5901;DHT22;2976;49.764;9.796;2023-05-16T12:34:51;12.40;99.90
5901;DHT22;2976;49.764;9.796;2023-05-16T12:37:17;12.40;99.90
5901;DHT22;2976;49.764;9.796;2023-05-16T12:39:43;12.40;99.90
5901;DHT22;2976;49.764;9.796;2023-05-16T12:42:13;12.50;99.90
5901;DHT22;2976;49.764;9.796;2023-05-16T12:44:39;12.70;99.90
5901;DHT22;2976;49.764;9.796;2023-05-16T12:47:12;12.80;99.90
5901;DHT22;2976;49.764;9.796;2023-05-16T12:49:44;12.90;99.90
5901;DHT22;2976;49.764;9.796;2023-05-16T12:52:16;13.10;99.90
5901;DHT22;2976;49.764;9.796;2023-05-16T12:54:43;13.10;99.90
5901;DHT22;2976;49.764;9.796;2023-05-16T12:57:09;12.90;99.90
5901;DHT22;2976;49.764;9.796;2023-05-16T12:59:35;13.00;99.90
5901;DHT22;2976;49.764;9.796;2023-05-16T13:02:00;12.90;99.90
5901;DHT22;2976;49.764;9.796;2023-05-16T13:04:26;12.90;99.90
5901;DHT22;2976;49.764;9.796;2023-05-16T13:06:51;13.20;99.90
5901;DHT22;2976;49.764;9.796;2023-05-16T13:09:17;13.60;99.90
5901;DHT22;2976;49.764;9.796;2023-05-16T13:11:43;13.40;99.90
5901;DHT22;2976;49.764;9.796;2023-05-16T13:14:09;13.40;99.90
5901;DHT22;2976;49.764;9.796;2023-05-16T13:16:34;13.40;99.90
5901;DHT22;2976;49.764;9.796;2023-05-16T13:19:00;13.40;99.90
5901;DHT22;2976;49.764;9.796;2023-05-16T13:21:26;13.70;99.90
5901;DHT22;2976;49.764;9.796;2023-05-16T13:23:54;13.60;99.90
5901;DHT22;2976;49.764;9.796;2023-05-16T13:26:20;13.70;99.90
5901;DHT22;2976;49.764;9.796;2023-05-16T13:28:46;13.50;99.90
5901;DHT22;2976;49.764;9.796;2023-05-16T13:31:15;13.60;99.90
5901;DHT22;2976;49.764;9.796;2023-05-16T13:33:41;13.90;99.90
5901;DHT22;2976;49.764;9.796;2023-05-16T13:36:07;14.00;99.90
5901;DHT22;2976;49.764;9.796;2023-05-16T13:38:32;14.20;99.90
5901;DHT22;2976;49.764;9.796;2023-05-16T13:40:58;14.50;99.90
5901;DHT22;2976;49.764;9.796;2023-05-16T13:43:23;14.20;99.90
5901;DHT22;2976;49.764;9.796;2023-05-16T13:45:49;14.50;98.40
5901;DHT22;2976;49.764;9.796;2023-05-16T13:48:14;14.60;96.20
5901;DHT22;2976;49.764;9.796;2023-05-16T13:50:40;14.30;96.90
5901;DHT22;2976;49.764;9.796;2023-05-16T13:53:06;14.00;95.90
5901;DHT22;2976;49.764;9.796;2023-05-16T13:55:32;13.80;96.50
5901;DHT22;2976;49.764;9.796;2023-05-16T13:57:58;14.10;98.10
5901;DHT22;2976;49.764;9.796;2023-05-16T14:00:24;14.40;98.10
5901;DHT22;2976;49.764;9.796;2023-05-16T14:02:51;14.50;94.00
5901;DHT22;2976;49.764;9.796;2023-05-16T14:05:17;14.20;94.80
5901;DHT22;2976;49.764;9.796;2023-05-16T14:07:42;14.10;94.50
5901;DHT22;2976;49.764;9.796;2023-05-16T14:10:08;14.10;94.90
5901;DHT22;2976;49.764;9.796;2023-05-16T14:12:34;14.10;94.70
5901;DHT22;2976;49.764;9.796;2023-05-16T14:14:59;14.00;94.60
5901;DHT22;2976;49.764;9.796;2023-05-16T14:17:25;14.00;93.80
5901;DHT22;2976;49.764;9.796;2023-05-16T14:19:51;14.10;96.70
5901;DHT22;2976;49.764;9.796;2023-05-16T14:22:17;14.10;95.10
5901;DHT22;2976;49.764;9.796;2023-05-16T14:24:43;14.30;94.50
5901;DHT22;2976;49.764;9.796;2023-05-16T14:27:09;14.30;91.50
5901;DHT22;2976;49.764;9.796;2023-05-16T14:29:35;14.00;91.00
5901;DHT22;2976;49.764;9.796;2023-05-16T14:32:00;13.80;92.10
5901;DHT22;2976;49.764;9.796;2023-05-16T14:34:26;13.70;92.10
5901;DHT22;2976;49.764;9.796;2023-05-16T14:36:51;13.70;93.40
5901;DHT22;2976;49.764;9.796;2023-05-16T14:39:17;13.80;92.20
5901;DHT22;2976;49.764;9.796;2023-05-16T14:41:42;13.90;91.50
5901;DHT22;2976;49.764;9.796;2023-05-16T14:44:08;13.80;90.20
5901;DHT22;2976;49.764;9.796;2023-05-16T14:46:34;13.90;91.30
5901;DHT22;2976;49.764;9.796;2023-05-16T14:48:59;13.90;91.20
5901;DHT22;2976;49.764;9.796;2023-05-16T14:51:25;14.20;90.00
5901;DHT22;2976;49.764;9.796;2023-05-16T14:53:50;14.20;87.40
5901;DHT22;2976;49.764;9.796;2023-05-16T14:56:16;14.40;87.90
5901;DHT22;2976;49.764;9.796;2023-05-16T14:58:42;14.20;86.80
5901;DHT22;2976;49.764;9.796;2023-05-16T15:01:07;14.20;87.20
5901;DHT22;2976;49.764;9.796;2023-05-16T15:03:33;14.20;85.30
5901;DHT22;2976;49.764;9.796;2023-05-16T15:05:59;14.00;87.50
5901;DHT22;2976;49.764;9.796;2023-05-16T15:08:24;14.00;87.60
5901;DHT22;2976;49.764;9.796;2023-05-16T15:10:50;14.00;86.40
5901;DHT22;2976;49.764;9.796;2023-05-16T15:13:16;14.00;85.10
5901;DHT22;2976;49.764;9.796;2023-05-16T15:15:41;14.20;86.20
5901;DHT22;2976;49.764;9.796;2023-05-16T15:18:07;14.20;84.30
5901;DHT22;2976;49.764;9.796;2023-05-16T15:20:33;14.50;83.30
5901;DHT22;2976;49.764;9.796;2023-05-16T15:22:59;14.70;83.40
5901;DHT22;2976;49.764;9.796;2023-05-16T15:25:25;15.00;81.90
5901;DHT22;2976;49.764;9.796;2023-05-16T15:27:50;15.00;77.00
5901;DHT22;2976;49.764;9.796;2023-05-16T15:30:16;14.70;77.90
5901;DHT22;2976;49.764;9.796;2023-05-16T15:32:41;14.90;79.50
5901;DHT22;2976;49.764;9.796;2023-05-16T15:35:07;15.10;76.50
5901;DHT22;2976;49.764;9.796;2023-05-16T15:37:32;15.00;75.80
5901;DHT22;2976;49.764;9.796;2023-05-16T15:39:59;14.90;76.10
5901;DHT22;2976;49.764;9.796;2023-05-16T15:42:24;14.80;74.90
5901;DHT22;2976;49.764;9.796;2023-05-16T15:44:50;14.60;76.10
5901;DHT22;2976;49.764;9.796;2023-05-16T15:47:16;14.40;75.20
5901;DHT22;2976;49.764;9.796;2023-05-16T15:49:41;14.50;76.10
5901;DHT22;2976;49.764;9.796;2023-05-16T15:52:07;14.70;76.40
5901;DHT22;2976;49.764;9.796;2023-05-16T15:54:33;14.90;74.70
5901;DHT22;2976;49.764;9.796;2023-05-16T15:57:00;14.80;74.70
5901;DHT22;2976;49.764;9.796;2023-05-16T15:59:25;14.80;74.00
5901;DHT22;2976;49.764;9.796;2023-05-16T16:01:51;14.90;74.10
5901;DHT22;2976;49.764;9.796;2023-05-16T16:04:17;15.10;75.10
5901;DHT22;2976;49.764;9.796;2023-05-16T16:06:42;15.00;73.90
5901;DHT22;2976;49.764;9.796;2023-05-16T16:09:08;15.00;72.10
5901;DHT22;2976;49.764;9.796;2023-05-16T16:11:35;14.90;73.10
5901;DHT22;2976;49.764;9.796;2023-05-16T16:14:01;14.90;74.00
5901;DHT22;2976;49.764;9.796;2023-05-16T16:16:26;14.90;73.60
5901;DHT22;2976;49.764;9.796;2023-05-16T16:18:52;14.90;73.30
5901;DHT22;2976;49.764;9.796;2023-05-16T16:21:18;14.90;72.60
5901;DHT22;2976;49.764;9.796;2023-05-16T16:23:44;14.70;70.80
5901;DHT22;2976;49.764;9.796;2023-05-16T16:26:09;14.60;69.80
5901;DHT22;2976;49.764;9.796;2023-05-16T16:28:35;14.40;70.80